createdAt,value
2019-01-16T00:04:08.698Z,3.67
2019-01-16T00:08:44.233Z,3.70
2019-01-16T00:11:24.006Z,3.43
2019-01-16T00:13:57.818Z,2.97
2019-01-16T00:16:37.538Z,4.83
2019-01-16T00:19:16.885Z,4.93
2019-01-16T00:21:50.726Z,2.83
2019-01-16T00:26:26.102Z,4.00
2019-01-16T00:29:07.861Z,4.77
2019-01-16T00:33:45.069Z,4.20
2019-01-16T00:36:32.799Z,2.93
2019-01-16T00:39:06.605Z,5.03
2019-01-16T00:41:46.493Z,4.00
2019-01-16T00:44:24.957Z,3.77
2019-01-16T00:47:07.761Z,4.20
2019-01-16T00:50:41.751Z,5.90
2019-01-16T00:54:17.409Z,3.40
2019-01-16T00:56:53.264Z,3.12
2019-01-16T00:59:41.961Z,4.17
2019-01-16T01:02:24.599Z,4.50
2019-01-16T01:05:04.465Z,5.43
2019-01-16T01:07:38.373Z,4.80
2019-01-16T01:10:14.217Z,3.37
2019-01-16T01:12:47.089Z,5.17
2019-01-16T01:15:26.973Z,3.23
2019-01-16T01:18:00.712Z,3.50
2019-01-16T01:20:34.856Z,6.57
2019-01-16T01:23:12.661Z,7.37
2019-01-16T01:25:52.313Z,15.40
2019-01-16T01:28:32.113Z,11.70
2019-01-16T01:31:08.805Z,7.97
2019-01-16T01:35:47.136Z,5.00
2019-01-16T01:38:26.825Z,5.30
2019-01-16T01:41:00.713Z,2.87
2019-01-16T01:43:36.396Z,2.90
2019-01-16T01:46:17.189Z,4.37
2019-01-16T01:48:49.937Z,4.23
2019-01-16T01:51:27.813Z,2.83
2019-01-16T01:54:12.761Z,2.67
2019-01-16T01:56:45.637Z,2.73
2019-01-16T02:01:20.869Z,1.27
2019-01-16T02:03:56.461Z,2.30
2019-01-16T02:06:45.227Z,2.47
2019-01-16T02:09:20.022Z,3.37
2019-01-16T02:13:58.368Z,1.70
2019-01-16T02:17:02.268Z,2.17
2019-01-16T02:19:36.096Z,1.63
2019-01-16T02:24:15.504Z,0.90
2019-01-16T02:26:57.288Z,1.97
2019-01-16T02:29:32.006Z,3.40
2019-01-16T02:32:07.863Z,2.37
2019-01-16T02:35:46.982Z,2.33
2019-01-16T02:40:24.580Z,2.57
2019-01-16T02:43:03.364Z,2.83
2019-01-16T02:46:09.229Z,2.90
2019-01-16T02:48:57.005Z,2.80
2019-01-16T02:51:30.184Z,3.40
2019-01-16T02:54:04.044Z,2.63
2019-01-16T02:58:43.776Z,2.50
2019-01-16T03:01:16.562Z,1.80
2019-01-16T03:03:50.332Z,2.27
2019-01-16T03:06:23.453Z,1.70
2019-01-16T03:09:04.248Z,3.87
2019-01-16T03:11:41.076Z,6.60
2019-01-16T03:14:21.205Z,6.30
2019-01-16T03:17:01.224Z,3.13
2019-01-16T03:19:51.199Z,4.10
2019-01-16T03:22:27.965Z,3.67
2019-01-16T03:25:03.665Z,3.13
2019-01-16T03:27:37.863Z,1.87
2019-01-16T03:30:12.277Z,2.17
2019-01-16T03:32:46.208Z,3.23
2019-01-16T03:35:25.368Z,5.33
2019-01-16T03:38:04.072Z,2.73
2019-01-16T03:41:12.948Z,2.17
2019-01-16T03:43:46.636Z,3.70
2019-01-16T03:46:22.295Z,1.80
2019-01-16T03:48:56.480Z,2.33
2019-01-16T03:53:35.898Z,2.47
2019-01-16T03:58:13.493Z,3.00
2019-01-16T04:02:53.892Z,3.70
2019-01-16T04:05:32.235Z,1.93
2019-01-16T04:08:06.384Z,4.23
2019-01-16T04:10:40.237Z,3.93
2019-01-16T04:13:16.219Z,2.10
2019-01-16T04:17:51.551Z,1.93
2019-01-16T04:20:28.216Z,3.00
2019-01-16T04:23:06.808Z,5.00
2019-01-16T04:25:47.651Z,7.67
2019-01-16T04:28:20.955Z,5.20
2019-01-16T04:31:09.111Z,6.07
2019-01-16T04:33:43.264Z,7.33
2019-01-16T04:36:18.209Z,6.33
2019-01-16T04:40:56.395Z,3.53
2019-01-16T04:45:33.083Z,2.83
2019-01-16T04:48:13.799Z,4.23
2019-01-16T04:50:47.735Z,5.73
2019-01-16T04:53:21.439Z,3.43
2019-01-16T04:55:55.900Z,2.93
2019-01-16T05:00:35.679Z,4.13
2019-01-16T05:03:13.724Z,3.83
2019-01-16T05:07:54.556Z,3.37
2019-01-16T05:10:34.498Z,4.53
2019-01-16T05:13:38.552Z,3.37
2019-01-16T05:16:14.187Z,3.20
2019-01-16T05:18:50.427Z,4.07
2019-01-16T05:22:29.500Z,4.53
2019-01-16T05:25:05.355Z,2.90
2019-01-16T05:28:13.667Z,4.93
2019-01-16T05:30:47.602Z,5.80
2019-01-16T05:33:37.355Z,6.17
2019-01-16T05:36:13.039Z,6.73
2019-01-16T05:39:53.407Z,4.93
2019-01-16T05:42:38.271Z,7.10
2019-01-16T05:47:16.897Z,7.40
2019-01-16T05:49:56.787Z,6.33
2019-01-16T05:52:30.726Z,6.87
2019-01-16T05:56:11.842Z,5.27
2019-01-16T05:58:48.833Z,7.40
2019-01-16T06:01:28.522Z,5.80
2019-01-16T06:04:02.446Z,6.80
2019-01-16T06:06:36.555Z,6.50
2019-01-16T06:09:19.217Z,8.93
2019-01-16T06:11:53.494Z,5.87
2019-01-16T06:14:30.551Z,7.05
2019-01-16T06:17:09.238Z,7.23
2019-01-16T06:19:44.297Z,7.00
2019-01-16T06:22:24.150Z,10.40
2019-01-16T06:26:59.653Z,11.77
2019-01-16T06:31:39.214Z,37.47
2019-01-16T06:34:13.382Z,30.83
2019-01-16T06:38:48.734Z,22.20
2019-01-16T06:41:38.374Z,26.40
2019-01-16T06:46:15.843Z,30.47
2019-01-16T06:49:00.694Z,32.90
2019-01-16T06:51:34.834Z,30.30
2019-01-16T06:54:10.936Z,24.60
2019-01-16T06:56:45.306Z,27.93
2019-01-16T07:01:20.870Z,26.13
2019-01-16T07:03:58.805Z,26.20
2019-01-16T07:06:34.022Z,29.20
2019-01-16T07:09:06.966Z,32.13
2019-01-16T07:11:49.838Z,32.27
2019-01-16T07:14:24.258Z,36.87
2019-01-16T07:17:00.276Z,37.50
2019-01-16T07:19:37.250Z,40.97
2019-01-16T07:22:13.371Z,37.97
2019-01-16T07:24:57.654Z,36.50
2019-01-16T07:28:03.642Z,37.70
2019-01-16T07:30:37.485Z,37.37
2019-01-16T07:33:12.218Z,51.70
2019-01-16T07:35:53.066Z,54.90
2019-01-16T07:38:35.901Z,54.40
2019-01-16T07:41:10.582Z,40.43
2019-01-16T07:43:44.790Z,45.77
2019-01-16T07:46:19.722Z,44.27
2019-01-16T07:50:59.318Z,42.00
2019-01-16T07:53:35.283Z,35.50
2019-01-16T07:57:12.961Z,38.10
2019-01-16T07:59:49.033Z,40.63
2019-01-16T08:02:25.157Z,45.93
2019-01-16T08:05:31.102Z,57.57
2019-01-16T08:08:12.753Z,68.03
2019-01-16T08:16:06.393Z,59.57
2019-01-16T08:33:47.737Z,45.90
2019-01-16T08:36:47.421Z,53.53
2019-01-16T08:39:43.837Z,58.78
2019-01-16T08:42:28.213Z,63.50
2019-01-16T08:48:31.341Z,67.80
2019-01-16T08:51:40.465Z,74.30
2019-01-16T10:10:32.428Z,38.60
2019-01-16T10:13:33.172Z,42.80
2019-01-16T10:16:42.540Z,41.10
2019-01-16T10:19:26.168Z,39.00
2019-01-16T11:07:36.103Z,47.05
2019-01-16T11:35:39.791Z,49.00
2019-01-16T11:38:25.726Z,41.00
2019-01-16T11:54:11.743Z,37.17
2019-01-16T11:56:50.659Z,38.57
2019-01-16T11:59:39.100Z,31.07
2019-01-16T12:02:17.635Z,40.93
2019-01-16T12:05:50.040Z,43.65
2019-01-16T12:08:23.439Z,45.52
2019-01-16T12:13:01.126Z,46.93
2019-01-16T12:15:34.199Z,40.00
2019-01-16T12:18:08.352Z,54.03
2019-01-16T12:20:44.211Z,40.33
2019-01-16T12:23:37.305Z,50.17
2019-01-16T12:28:12.910Z,52.33
2019-01-16T12:30:51.850Z,53.77
2019-01-16T12:33:57.015Z,39.98
2019-01-16T12:37:30.331Z,49.48
2019-01-16T12:40:16.255Z,46.85
2019-01-16T12:43:07.262Z,49.63
2019-01-16T12:45:41.183Z,50.73
2019-01-16T12:48:46.655Z,48.00
2019-01-16T12:51:22.371Z,49.10
2019-01-16T12:53:56.534Z,42.38
2019-01-16T12:56:29.591Z,37.35
2019-01-16T12:59:13.794Z,35.20
2019-01-16T13:01:48.667Z,31.93
2019-01-16T13:04:52.986Z,29.50
2019-01-16T13:07:40.941Z,32.55
2019-01-16T13:10:21.339Z,24.23
2019-01-16T13:15:03.094Z,32.35
2019-01-16T13:17:38.374Z,20.68
2019-01-16T13:20:12.477Z,29.27
2019-01-16T13:22:46.550Z,39.73
2019-01-16T13:25:20.707Z,45.27
2019-01-16T13:28:09.022Z,42.00
2019-01-16T13:30:43.235Z,36.63
2019-01-16T13:33:27.614Z,32.85
2019-01-16T13:36:01.683Z,34.75
2019-01-16T13:38:34.526Z,29.82
2019-01-16T13:41:27.475Z,29.03
2019-01-16T13:46:06.322Z,33.35
2019-01-16T13:48:42.454Z,41.92
2019-01-16T13:51:47.904Z,46.60
2019-01-16T13:54:22.006Z,45.03
2019-01-16T13:57:11.170Z,41.20
2019-01-16T13:59:50.202Z,45.73
2019-01-16T14:02:24.406Z,37.03
2019-01-16T14:05:00.803Z,41.27
2019-01-16T14:07:34.890Z,38.08
2019-01-16T14:10:10.418Z,48.87
2019-01-16T14:12:58.096Z,45.27
2019-01-16T14:16:43.530Z,42.78
2019-01-16T15:00:58.110Z,36.10
2019-01-16T15:04:07.966Z,33.33
2019-01-16T15:06:42.118Z,30.17
2019-01-16T15:09:17.342Z,44.18
2019-01-16T15:11:51.441Z,31.13
2019-01-16T15:14:35.825Z,31.17
2019-01-16T15:17:16.101Z,33.35
2019-01-16T15:23:03.421Z,31.05
2019-01-16T16:23:13.269Z,40.00
2019-01-16T16:26:21.735Z,35.35
2019-01-16T16:54:39.616Z,35.45
2019-01-16T16:59:15.043Z,36.30
2019-01-16T17:01:47.751Z,42.60
2019-01-16T17:04:22.331Z,38.65
2019-01-16T17:06:56.222Z,39.25
2019-01-16T17:09:30.019Z,36.38
2019-01-16T17:12:05.596Z,27.95
2019-01-16T17:14:50.227Z,30.32
2019-01-16T17:17:24.007Z,25.52
2019-01-16T17:20:02.823Z,28.37
2019-01-16T17:22:38.607Z,32.88
2019-01-16T17:25:16.375Z,27.80
2019-01-16T17:27:58.114Z,33.28
2019-01-16T17:30:42.084Z,29.52
2019-01-16T17:33:15.155Z,35.08
2019-01-16T17:35:50.786Z,28.85
2019-01-16T17:38:24.415Z,32.35
2019-01-16T17:41:04.383Z,37.47
2019-01-16T17:45:42.948Z,31.65
2019-01-16T17:49:19.110Z,38.45
2019-01-16T17:51:59.264Z,31.10
2019-01-16T17:54:34.877Z,34.20
2019-01-16T17:57:10.245Z,36.25
2019-01-16T18:00:41.309Z,30.75
2019-01-16T18:03:21.004Z,23.66
2019-01-16T18:06:08.624Z,28.20
2019-01-16T18:08:42.501Z,29.37
2019-01-16T18:11:22.307Z,27.43
2019-01-16T18:13:56.004Z,26.42
2019-01-16T18:18:33.632Z,29.00
2019-01-16T18:21:06.384Z,25.17
2019-01-16T18:25:41.800Z,29.53
2019-01-16T18:28:18.392Z,34.92
2019-01-16T18:30:56.031Z,27.73
2019-01-16T18:33:40.591Z,28.27
2019-01-16T18:36:14.088Z,23.92
2019-01-16T18:38:48.916Z,33.17
2019-01-16T18:41:30.424Z,26.50
2019-01-16T18:44:34.215Z,30.10
2019-01-16T18:49:10.155Z,32.70
2019-01-16T18:51:54.739Z,31.33
2019-01-16T18:54:30.416Z,27.85
2019-01-16T18:57:04.443Z,30.27
2019-01-16T18:59:40.090Z,25.62
2019-01-16T19:04:20.350Z,30.55
2019-01-16T19:06:54.879Z,22.05
2019-01-16T19:09:28.683Z,25.95
2019-01-16T19:12:01.372Z,25.12
2019-01-16T19:15:38.467Z,27.62
2019-01-16T19:19:13.355Z,38.50
2019-01-16T19:21:46.051Z,32.88
2019-01-16T19:24:21.816Z,31.37
2019-01-16T19:27:58.212Z,27.30
2019-01-16T19:30:34.015Z,26.68
2019-01-16T19:33:07.839Z,29.12
2019-01-16T19:35:45.563Z,26.75
2019-01-16T19:38:54.751Z,21.35
2019-01-16T19:41:28.635Z,30.23
2019-01-16T19:44:04.380Z,28.80
2019-01-16T19:46:40.114Z,31.25
2019-01-16T19:49:21.839Z,31.10
2019-01-16T19:53:04.697Z,31.02
2019-01-16T19:55:33.980Z,32.78
2019-01-16T19:58:10.728Z,32.73
2019-01-16T20:00:48.425Z,35.25
2019-01-16T20:03:22.240Z,45.38
2019-01-16T20:06:53.276Z,30.23
2019-01-16T20:11:33.973Z,29.53
2019-01-16T20:14:07.923Z,30.12
2019-01-16T20:16:46.646Z,31.55
2019-01-16T20:19:27.357Z,25.35
2019-01-16T20:24:05.765Z,26.02
2019-01-16T20:26:44.508Z,27.05
2019-01-16T20:29:18.549Z,31.27
2019-01-16T20:31:52.389Z,25.57
2019-01-16T20:34:28.076Z,27.55
2019-01-16T20:37:11.843Z,28.17
2019-01-16T20:39:50.426Z,29.57
2019-01-16T20:42:24.303Z,26.55
2019-01-16T20:45:04.919Z,28.05
2019-01-16T20:47:38.827Z,25.00
2019-01-16T20:51:20.391Z,18.95
2019-01-16T20:54:58.274Z,14.30
2019-01-16T20:57:33.954Z,26.05
2019-01-16T21:00:12.898Z,25.20
2019-01-16T21:02:46.649Z,25.70
2019-01-16T21:05:34.386Z,26.75
2019-01-16T21:08:08.230Z,25.27
2019-01-16T21:10:46.087Z,24.90
2019-01-16T21:13:19.791Z,24.15
2019-01-16T21:15:57.514Z,25.40
2019-01-16T21:20:34.990Z,27.50
2019-01-16T21:23:10.510Z,27.13
2019-01-16T21:25:44.807Z,25.23
2019-01-16T21:28:50.590Z,29.27
2019-01-16T21:31:39.258Z,23.23
2019-01-16T21:34:11.962Z,22.95
2019-01-16T21:36:49.786Z,26.57
2019-01-16T21:41:25.118Z,27.15
2019-01-16T21:44:06.154Z,26.63
2019-01-16T21:46:44.414Z,24.90
2019-01-16T21:49:25.666Z,23.57
2019-01-16T21:52:02.319Z,23.80
2019-01-16T21:54:42.202Z,20.97
2019-01-16T21:57:18.233Z,21.30
2019-01-16T21:59:54.101Z,24.47
2019-01-16T22:02:28.457Z,21.90
2019-01-16T22:07:06.858Z,21.27
2019-01-16T22:09:48.908Z,22.98
2019-01-16T22:13:26.662Z,23.93
2019-01-16T22:16:14.267Z,19.32
2019-01-16T22:20:51.527Z,21.50
2019-01-16T22:24:32.594Z,20.90
2019-01-16T22:27:13.038Z,20.55
2019-01-16T22:31:54.954Z,18.80
2019-01-16T22:35:33.829Z,15.87
2019-01-16T22:38:13.182Z,18.07
2019-01-16T22:40:51.037Z,17.60
2019-01-16T22:43:30.367Z,17.10
2019-01-16T22:46:06.158Z,14.58
2019-01-16T22:48:49.505Z,14.93
2019-01-16T22:51:23.594Z,15.23
2019-01-16T22:54:03.474Z,13.30
2019-01-16T22:56:43.274Z,14.33
2019-01-16T22:59:17.202Z,12.68
2019-01-16T23:02:08.178Z,15.03
2019-01-16T23:04:56.941Z,13.97
2019-01-16T23:07:32.698Z,13.93
2019-01-16T23:10:09.787Z,12.23
2019-01-16T23:14:49.582Z,14.47
2019-01-16T23:19:26.063Z,12.87
2019-01-16T23:22:01.522Z,18.12
2019-01-16T23:24:34.622Z,15.90
2019-01-16T23:29:11.105Z,18.50
2019-01-16T23:31:52.385Z,15.75
2019-01-16T23:34:27.414Z,13.37
2019-01-16T23:39:09.078Z,13.08
2019-01-16T23:43:45.517Z,11.37
2019-01-16T23:46:21.681Z,11.50
2019-01-16T23:49:01.781Z,13.50
2019-01-16T23:51:35.661Z,12.57
2019-01-16T23:54:10.377Z,15.74
2019-01-16T23:58:50.036Z,9.60
